createdAt,value
2017-06-21T00:00:46.795Z,0
2017-06-21T00:01:47.466Z,0
2017-06-21T00:02:48.466Z,0
2017-06-21T00:03:49.203Z,0
2017-06-21T00:04:50.098Z,0
2017-06-21T00:05:50.750Z,0
2017-06-21T00:06:51.439Z,0
2017-06-21T00:07:52.111Z,0
2017-06-21T00:08:53.146Z,0
2017-06-21T00:09:53.884Z,0
2017-06-21T00:10:54.572Z,0
2017-06-21T00:11:55.304Z,0
2017-06-21T00:12:55.986Z,0
2017-06-21T00:13:56.677Z,0
2017-06-21T00:14:57.710Z,0
2017-06-21T00:15:58.400Z,0
2017-06-21T00:16:59.081Z,0
2017-06-21T00:17:59.765Z,0
2017-06-21T00:19:00.458Z,0
2017-06-21T00:20:01.297Z,0
2017-06-21T00:21:02.275Z,0
2017-06-21T00:22:02.965Z,0
2017-06-21T00:23:03.694Z,0
2017-06-21T00:24:04.386Z,0
2017-06-21T00:25:05.158Z,0
2017-06-21T00:26:05.844Z,0
2017-06-21T00:27:06.821Z,0
2017-06-21T00:28:07.603Z,0
2017-06-21T00:29:08.337Z,0
2017-06-21T00:30:09.017Z,0
2017-06-21T00:31:09.707Z,0
2017-06-21T00:32:10.383Z,0
2017-06-21T00:33:11.369Z,0
2017-06-21T00:34:12.056Z,0
2017-06-21T00:35:12.735Z,0
2017-06-21T00:36:13.434Z,0
2017-06-21T00:37:14.118Z,0
2017-06-21T00:38:14.988Z,0
2017-06-21T00:39:15.978Z,0
2017-06-21T00:40:16.662Z,0
2017-06-21T00:41:17.350Z,0
2017-06-21T00:42:18.061Z,0
2017-06-21T00:43:18.741Z,0
2017-06-21T00:44:19.426Z,0
2017-06-21T00:45:20.413Z,0
2017-06-21T00:46:21.097Z,0
2017-06-21T00:47:21.772Z,0
2017-06-21T00:48:22.522Z,0
2017-06-21T00:49:23.202Z,0
2017-06-21T00:50:23.932Z,0
2017-06-21T00:51:24.925Z,0
2017-06-21T00:52:25.597Z,0
2017-06-21T00:53:26.539Z,0
2017-06-21T00:54:27.215Z,0
2017-06-21T00:55:27.899Z,0
2017-06-21T00:56:28.588Z,0
2017-06-21T00:57:29.571Z,0
2017-06-21T00:58:30.366Z,0
2017-06-21T00:59:31.055Z,0
2017-06-21T01:00:31.877Z,0
2017-06-21T01:01:32.585Z,0
2017-06-21T01:02:33.266Z,0
2017-06-21T01:03:34.270Z,0
2017-06-21T01:04:34.941Z,0
2017-06-21T01:05:35.678Z,0
2017-06-21T01:06:36.371Z,0
2017-06-21T01:07:37.108Z,0
2017-06-21T01:08:37.800Z,0
2017-06-21T01:09:38.791Z,0
2017-06-21T01:10:39.459Z,0
2017-06-21T01:11:40.150Z,0
2017-06-21T01:12:40.881Z,0
2017-06-21T01:13:41.567Z,0
2017-06-21T01:14:42.244Z,0
2017-06-21T01:15:43.269Z,0
2017-06-21T01:16:43.955Z,0
2017-06-21T01:17:44.791Z,0
2017-06-21T01:18:45.510Z,0
2017-06-21T01:19:46.196Z,0
2017-06-21T01:20:46.884Z,0
2017-06-21T01:21:47.869Z,0
2017-06-21T01:22:48.656Z,0
2017-06-21T01:23:49.416Z,0
2017-06-21T01:24:50.112Z,0
2017-06-21T01:25:50.791Z,0
2017-06-21T01:26:51.502Z,0
2017-06-21T01:27:52.473Z,0
2017-06-21T01:28:53.154Z,0
2017-06-21T01:29:53.835Z,0
2017-06-21T01:30:54.522Z,0
2017-06-21T01:31:55.202Z,0
2017-06-21T01:32:55.975Z,0
2017-06-21T01:33:56.677Z,0
2017-06-21T01:34:57.671Z,0
2017-06-21T01:35:58.378Z,0
2017-06-21T01:36:59.065Z,0
2017-06-21T01:37:59.807Z,0
2017-06-21T01:39:00.511Z,0
2017-06-21T01:40:01.225Z,0
2017-06-21T01:41:02.206Z,0
2017-06-21T01:42:02.898Z,0
2017-06-21T01:43:03.578Z,0
2017-06-21T01:44:04.277Z,0
2017-06-21T01:45:05.112Z,0
2017-06-21T01:46:05.785Z,0
2017-06-21T01:47:06.775Z,0
2017-06-21T01:48:07.474Z,0
2017-06-21T01:49:08.160Z,0
2017-06-21T01:50:09.268Z,0
2017-06-21T01:51:09.954Z,0
2017-06-21T01:52:10.640Z,0
2017-06-21T01:53:11.640Z,0
2017-06-21T01:54:12.339Z,0
2017-06-21T01:55:13.075Z,0
2017-06-21T01:56:13.749Z,0
2017-06-21T01:57:14.433Z,0
2017-06-21T01:58:15.115Z,0
2017-06-21T01:59:16.118Z,0
2017-06-21T02:00:16.941Z,0
2017-06-21T02:01:17.675Z,0
2017-06-21T02:02:18.346Z,0
2017-06-21T02:03:19.032Z,0
2017-06-21T02:04:19.717Z,0
2017-06-21T02:05:20.792Z,0
2017-06-21T02:06:21.491Z,0
2017-06-21T02:07:22.233Z,0
2017-06-21T02:08:22.896Z,0
2017-06-21T02:09:23.574Z,0
2017-06-21T02:10:24.308Z,0
2017-06-21T02:11:25.297Z,0
2017-06-21T02:12:26.041Z,0
2017-06-21T02:13:26.711Z,0
2017-06-21T02:14:27.396Z,0
2017-06-21T02:15:28.112Z,0
2017-06-21T02:16:28.809Z,0
2017-06-21T02:17:29.790Z,0
2017-06-21T02:18:30.471Z,0
2017-06-21T02:19:31.153Z,0
2017-06-21T02:20:31.832Z,0
2017-06-21T02:21:32.554Z,0
2017-06-21T02:22:33.264Z,0
2017-06-21T02:23:34.243Z,0
2017-06-21T02:24:34.940Z,0
2017-06-21T02:25:35.611Z,0
2017-06-21T02:26:36.295Z,0
2017-06-21T02:27:37.018Z,0
2017-06-21T02:28:37.708Z,0
2017-06-21T02:29:38.696Z,0
2017-06-21T02:30:39.372Z,0
2017-06-21T02:31:40.137Z,0
2017-06-21T02:32:40.878Z,0
2017-06-21T02:33:41.555Z,0
2017-06-21T02:34:42.248Z,0
2017-06-21T02:35:43.234Z,0
2017-06-21T02:36:43.925Z,0
2017-06-21T02:37:44.609Z,0
2017-06-21T02:38:45.294Z,0
2017-06-21T02:39:45.988Z,0
2017-06-21T02:40:46.661Z,0
2017-06-21T02:41:47.652Z,0
2017-06-21T02:42:48.382Z,0
2017-06-21T02:43:49.084Z,0
2017-06-21T02:44:49.770Z,0
2017-06-21T02:45:50.450Z,0
2017-06-21T02:46:51.135Z,0
2017-06-21T02:47:52.185Z,0
2017-06-21T02:48:52.908Z,0
2017-06-21T02:49:53.649Z,0
2017-06-21T02:50:54.334Z,0
2017-06-21T02:51:55.024Z,0
2017-06-21T02:52:55.700Z,0
2017-06-21T02:53:56.684Z,0
2017-06-21T02:54:57.478Z,0
2017-06-21T02:55:58.152Z,0
2017-06-21T02:56:58.838Z,0
2017-06-21T02:57:59.527Z,0
2017-06-21T02:59:00.213Z,0
2017-06-21T03:00:01.344Z,0
2017-06-21T03:01:02.029Z,0
2017-06-21T03:02:02.716Z,0
2017-06-21T03:03:03.400Z,0
2017-06-21T03:04:04.085Z,0
2017-06-21T03:05:04.826Z,0
2017-06-21T03:06:05.547Z,0
2017-06-21T03:07:06.532Z,0
2017-06-21T03:08:07.204Z,0
2017-06-21T03:09:07.900Z,0
2017-06-21T03:10:08.744Z,0
2017-06-21T03:11:09.421Z,0
2017-06-21T03:12:10.160Z,0
2017-06-21T03:13:11.144Z,0
2017-06-21T03:14:11.831Z,0
2017-06-21T03:15:12.670Z,0
2017-06-21T03:16:13.394Z,0
2017-06-21T03:17:14.095Z,0
2017-06-21T03:18:14.773Z,0
2017-06-21T03:19:15.758Z,0
2017-06-21T03:20:16.498Z,0
2017-06-21T03:21:17.199Z,5
2017-06-21T03:22:17.881Z,5
2017-06-21T03:23:18.636Z,5
2017-06-21T03:24:19.351Z,5
2017-06-21T03:25:20.378Z,5
2017-06-21T03:26:21.070Z,5
2017-06-21T03:27:21.755Z,5
2017-06-21T03:28:22.442Z,5
2017-06-21T03:29:23.119Z,5
2017-06-21T03:30:24.107Z,5
2017-06-21T03:31:25.114Z,5
2017-06-21T03:32:25.841Z,5
2017-06-21T03:33:26.560Z,10
2017-06-21T03:34:27.255Z,10
2017-06-21T03:35:27.989Z,10
2017-06-21T03:36:28.673Z,10
2017-06-21T03:37:29.763Z,10
2017-06-21T03:38:30.460Z,10
2017-06-21T03:39:31.139Z,10
2017-06-21T03:40:31.852Z,10
2017-06-21T03:41:32.544Z,10
2017-06-21T03:42:33.389Z,10
2017-06-21T03:43:34.391Z,10
2017-06-21T03:44:35.081Z,15
2017-06-21T03:45:35.765Z,15
2017-06-21T03:46:36.514Z,15
2017-06-21T03:47:37.242Z,15
2017-06-21T03:48:37.924Z,15
2017-06-21T03:49:38.628Z,15
2017-06-21T03:50:39.655Z,15
2017-06-21T03:51:40.342Z,15
2017-06-21T03:52:41.070Z,15
2017-06-21T03:53:41.748Z,15
2017-06-21T03:54:42.438Z,20
2017-06-21T03:55:43.137Z,20
2017-06-21T03:56:44.118Z,20
2017-06-21T03:57:45.000Z,20
2017-06-21T03:58:45.674Z,20
2017-06-21T03:59:46.519Z,20
2017-06-21T04:00:47.221Z,20
2017-06-21T04:01:47.934Z,20
2017-06-21T04:02:48.932Z,25
2017-06-21T04:03:49.641Z,25
2017-06-21T04:04:50.357Z,25
2017-06-21T04:05:51.048Z,25
2017-06-21T04:06:51.728Z,25
2017-06-21T04:07:52.417Z,25
2017-06-21T04:08:53.570Z,25
2017-06-21T04:09:54.248Z,25
2017-06-21T04:10:54.937Z,25
2017-06-21T04:11:55.639Z,30
2017-06-21T04:12:56.312Z,30
2017-06-21T04:13:57.464Z,30
2017-06-21T04:14:58.454Z,30
2017-06-21T04:15:59.145Z,30
2017-06-21T04:16:59.829Z,30
2017-06-21T04:18:00.537Z,30
2017-06-21T04:19:01.284Z,30
2017-06-21T04:20:01.986Z,30
2017-06-21T04:21:02.680Z,30
2017-06-21T04:22:03.689Z,30
2017-06-21T04:23:04.412Z,30
2017-06-21T04:24:05.298Z,35
2017-06-21T04:25:06.036Z,35
2017-06-21T04:26:06.719Z,35
2017-06-21T04:27:07.457Z,35
2017-06-21T04:28:08.517Z,35
2017-06-21T04:29:09.429Z,35
2017-06-21T04:30:10.235Z,40
2017-06-21T04:31:11.011Z,40
2017-06-21T04:32:11.718Z,40
2017-06-21T04:33:12.445Z,40
2017-06-21T04:34:13.472Z,40
2017-06-21T04:35:14.244Z,40
2017-06-21T04:36:15.055Z,40
2017-06-21T04:37:15.750Z,40
2017-06-21T04:38:16.472Z,40
2017-06-21T04:39:17.221Z,40
2017-06-21T04:40:18.208Z,40
2017-06-21T04:41:18.903Z,45
2017-06-21T04:42:19.640Z,45
2017-06-21T04:43:20.344Z,45
2017-06-21T04:44:21.462Z,45
2017-06-21T04:45:22.161Z,45
2017-06-21T04:46:23.205Z,40
2017-06-21T04:47:23.903Z,40
2017-06-21T04:48:24.714Z,40
2017-06-21T04:49:25.579Z,40
2017-06-21T04:50:26.326Z,40
2017-06-21T04:51:27.018Z,40
2017-06-21T04:52:28.001Z,40
2017-06-21T04:53:28.705Z,40
2017-06-21T04:54:29.454Z,40
2017-06-21T04:55:30.170Z,45
2017-06-21T04:56:30.932Z,45
2017-06-21T04:57:31.639Z,45
2017-06-21T04:58:32.635Z,45
2017-06-21T04:59:33.515Z,45
2017-06-21T05:00:34.214Z,45
2017-06-21T05:01:34.922Z,50
2017-06-21T05:02:35.608Z,50
2017-06-21T05:03:36.295Z,50
2017-06-21T05:04:37.028Z,50
2017-06-21T05:05:38.017Z,50
2017-06-21T05:06:38.725Z,50
2017-06-21T05:07:39.416Z,50
2017-06-21T05:08:40.100Z,50
2017-06-21T05:09:40.836Z,50
2017-06-21T05:10:41.524Z,50
2017-06-21T05:11:42.529Z,55
2017-06-21T05:12:43.214Z,55
2017-06-21T05:13:43.956Z,55
2017-06-21T05:14:44.745Z,55
2017-06-21T05:15:45.436Z,55
2017-06-21T05:16:46.139Z,55
2017-06-21T05:17:47.111Z,55
2017-06-21T05:18:47.812Z,55
2017-06-21T05:19:48.554Z,55
2017-06-21T05:20:49.330Z,55
2017-06-21T05:21:50.165Z,55
2017-06-21T05:22:50.930Z,55
2017-06-21T05:23:51.627Z,55
2017-06-21T05:24:52.467Z,55
2017-06-21T05:25:53.183Z,55
2017-06-21T05:26:53.871Z,55
2017-06-21T05:27:54.562Z,55
2017-06-21T05:28:55.267Z,55
2017-06-21T05:29:56.306Z,50
2017-06-21T05:30:57.044Z,50
2017-06-21T05:31:57.692Z,50
2017-06-21T05:32:58.378Z,50
2017-06-21T05:33:59.084Z,50
2017-06-21T05:34:59.813Z,50
2017-06-21T05:36:00.860Z,50
2017-06-21T05:37:01.554Z,50
2017-06-21T05:38:02.290Z,50
2017-06-21T05:39:02.981Z,50
2017-06-21T05:40:03.677Z,50
2017-06-21T05:41:04.370Z,50
2017-06-21T05:42:05.379Z,50
2017-06-21T05:43:06.198Z,50
2017-06-21T05:44:06.906Z,50
2017-06-21T05:45:07.598Z,50
2017-06-21T05:46:08.308Z,50
2017-06-21T05:47:09.021Z,50
2017-06-21T05:48:10.132Z,50
2017-06-21T05:49:10.825Z,50
2017-06-21T05:50:11.569Z,55
2017-06-21T05:51:12.253Z,55
2017-06-21T05:52:12.959Z,55
2017-06-21T05:53:13.684Z,55
2017-06-21T05:54:14.675Z,55
2017-06-21T05:55:15.353Z,55
2017-06-21T05:56:16.228Z,55
2017-06-21T05:57:16.957Z,55
2017-06-21T05:58:17.641Z,55
2017-06-21T05:59:18.380Z,55
2017-06-21T06:00:19.415Z,55
2017-06-21T06:01:20.115Z,55
2017-06-21T06:02:20.803Z,55
2017-06-21T06:03:21.482Z,55
2017-06-21T06:04:22.228Z,55
2017-06-21T06:05:23.017Z,55
2017-06-21T06:06:23.714Z,55
2017-06-21T06:07:24.397Z,55
2017-06-21T06:08:25.097Z,55
2017-06-21T06:09:25.791Z,55
2017-06-21T06:10:26.538Z,55
2017-06-21T06:11:27.235Z,55
2017-06-21T06:12:28.365Z,55
2017-06-21T06:13:29.131Z,55
2017-06-21T06:14:29.848Z,55
2017-06-21T06:15:30.729Z,55
2017-06-21T06:16:31.574Z,55
2017-06-21T06:17:32.285Z,60
2017-06-21T06:18:33.366Z,60
2017-06-21T06:19:34.131Z,60
2017-06-21T06:20:34.955Z,60
2017-06-21T06:21:35.717Z,60
2017-06-21T06:22:36.476Z,60
2017-06-21T06:23:37.182Z,60
2017-06-21T06:24:38.169Z,60
2017-06-21T06:25:39.023Z,60
2017-06-21T06:26:39.785Z,60
2017-06-21T06:27:40.586Z,60
2017-06-21T06:28:41.363Z,60
2017-06-21T06:29:42.072Z,60
2017-06-21T06:30:43.111Z,60
2017-06-21T06:31:43.872Z,60
2017-06-21T06:32:44.653Z,60
2017-06-21T06:33:45.510Z,60
2017-06-21T06:34:46.300Z,60
2017-06-21T06:35:47.242Z,60
2017-06-21T06:36:48.236Z,60
2017-06-21T06:37:48.939Z,60
2017-06-21T06:38:49.660Z,60
2017-06-21T06:39:50.409Z,60
2017-06-21T06:40:51.312Z,60
2017-06-21T06:41:52.356Z,60
2017-06-21T06:42:53.354Z,60
2017-06-21T06:43:54.125Z,60
2017-06-21T06:44:54.820Z,60
2017-06-21T06:45:55.669Z,60
2017-06-21T06:46:56.353Z,60
2017-06-21T06:47:57.057Z,60
2017-06-21T06:48:57.746Z,60
2017-06-21T06:49:58.539Z,60
2017-06-21T06:50:59.428Z,60
2017-06-21T06:52:00.240Z,60
2017-06-21T06:53:01.031Z,60
2017-06-21T06:54:01.856Z,60
2017-06-21T06:55:02.941Z,60
2017-06-21T06:56:03.807Z,60
2017-06-21T06:57:04.633Z,60
2017-06-21T06:58:05.338Z,60
2017-06-21T06:59:06.042Z,60
2017-06-21T07:00:06.748Z,60
2017-06-21T07:01:07.446Z,60
2017-06-21T07:02:08.602Z,60
2017-06-21T07:03:09.292Z,60
2017-06-21T07:04:10.002Z,60
2017-06-21T07:05:10.741Z,60
2017-06-21T07:06:11.777Z,60
2017-06-21T07:07:12.554Z,60
2017-06-21T07:08:13.550Z,60
2017-06-21T07:09:14.244Z,60
2017-06-21T07:10:14.992Z,60
2017-06-21T07:11:15.752Z,60
2017-06-21T07:12:16.582Z,60
2017-06-21T07:13:17.274Z,60
2017-06-21T07:14:18.282Z,60
2017-06-21T07:15:18.971Z,60
2017-06-21T07:16:19.749Z,60
2017-06-21T07:17:20.728Z,60
2017-06-21T07:18:21.433Z,60
2017-06-21T07:19:22.237Z,60
2017-06-21T07:20:23.464Z,60
2017-06-21T07:21:24.309Z,60
2017-06-21T07:22:25.322Z,60
2017-06-21T07:23:26.027Z,60
2017-06-21T07:24:26.785Z,60
2017-06-21T07:25:27.636Z,60
2017-06-21T07:26:28.844Z,60
2017-06-21T07:27:29.845Z,60
2017-06-21T07:28:30.608Z,60
2017-06-21T07:29:31.452Z,60
2017-06-21T07:30:32.249Z,60
2017-06-21T07:31:32.943Z,60
2017-06-21T07:32:34.177Z,65
2017-06-21T07:33:34.953Z,65
2017-06-21T07:34:35.806Z,65
2017-06-21T07:35:36.559Z,65
2017-06-21T07:36:37.339Z,65
2017-06-21T07:37:38.616Z,65
2017-06-21T07:38:39.493Z,65
2017-06-21T07:39:40.265Z,65
2017-06-21T07:40:41.069Z,65
2017-06-21T07:41:41.803Z,65
2017-06-21T07:42:42.565Z,65
2017-06-21T07:43:43.576Z,65
2017-06-21T07:44:44.402Z,65
2017-06-21T07:45:45.147Z,65
2017-06-21T07:46:45.909Z,65
2017-06-21T07:47:46.599Z,65
2017-06-21T07:48:47.355Z,65
2017-06-21T07:49:48.517Z,65
2017-06-21T07:50:49.290Z,65
2017-06-21T07:51:50.422Z,65
2017-06-21T07:52:51.297Z,65
2017-06-21T07:53:52.174Z,65
2017-06-21T07:54:53.028Z,65
2017-06-21T07:55:54.117Z,65
2017-06-21T07:56:55.127Z,65
2017-06-21T07:57:55.916Z,70
2017-06-21T07:58:56.779Z,70
2017-06-21T07:59:57.638Z,70
2017-06-21T08:00:58.473Z,70
2017-06-21T08:01:59.320Z,70
2017-06-21T08:03:00.020Z,70
2017-06-21T08:04:00.724Z,70
2017-06-21T08:05:01.441Z,70
2017-06-21T08:06:02.465Z,70
2017-06-21T08:07:03.311Z,70
2017-06-21T08:08:04.081Z,70
2017-06-21T08:09:04.982Z,70
2017-06-21T08:10:05.775Z,70
2017-06-21T08:11:06.550Z,70
2017-06-21T08:12:07.787Z,70
2017-06-21T08:13:08.643Z,70
2017-06-21T08:14:09.435Z,70
2017-06-21T08:15:10.208Z,70
2017-06-21T08:16:11.041Z,70
2017-06-21T08:17:11.783Z,70
2017-06-21T08:18:12.570Z,70
2017-06-21T08:19:13.282Z,70
2017-06-21T08:20:14.005Z,70
2017-06-21T08:21:14.756Z,70
2017-06-21T08:22:15.749Z,70
2017-06-21T08:23:16.448Z,70
2017-06-21T08:24:17.147Z,75
2017-06-21T08:25:17.848Z,75
2017-06-21T08:26:18.540Z,75
2017-06-21T08:27:19.397Z,75
2017-06-21T08:28:20.451Z,75
2017-06-21T08:29:21.125Z,75
2017-06-21T08:30:21.811Z,75
2017-06-21T08:31:22.621Z,75
2017-06-21T08:32:23.306Z,75
2017-06-21T08:33:24.061Z,75
2017-06-21T08:34:25.061Z,75
2017-06-21T08:35:25.761Z,75
2017-06-21T08:36:26.751Z,75
2017-06-21T08:37:27.460Z,75
2017-06-21T08:38:28.146Z,75
2017-06-21T08:39:28.900Z,75
2017-06-21T08:40:29.886Z,75
2017-06-21T08:41:30.643Z,75
2017-06-21T08:42:31.323Z,75
2017-06-21T08:43:32.022Z,80
2017-06-21T08:44:32.729Z,80
2017-06-21T08:45:33.420Z,80
2017-06-21T08:46:34.601Z,80
2017-06-21T08:47:35.348Z,80
2017-06-21T08:48:36.048Z,80
2017-06-21T08:49:37.463Z,80
2017-06-21T08:50:39.003Z,80
2017-06-21T08:51:39.726Z,80
2017-06-21T08:52:40.737Z,85
2017-06-21T08:53:41.471Z,85
2017-06-21T08:54:42.160Z,85
2017-06-21T08:56:58.560Z,90
2017-06-21T08:57:59.561Z,90
2017-06-21T08:59:00.236Z,95
2017-06-21T09:00:00.948Z,95
2017-06-21T09:01:02.479Z,95
2017-06-21T09:02:03.285Z,100
2017-06-21T09:03:05.104Z,100
2017-06-21T09:04:06.103Z,100
2017-06-21T09:05:06.786Z,95
2017-06-21T09:06:07.580Z,95
2017-06-21T09:07:08.271Z,95
2017-06-21T09:08:09.034Z,95
2017-06-21T09:09:09.808Z,90
2017-06-21T09:10:10.521Z,90
2017-06-21T09:11:11.914Z,90
2017-06-21T09:12:12.613Z,90
2017-06-21T09:13:13.329Z,90
2017-06-21T09:14:14.101Z,90
2017-06-21T09:15:14.970Z,90
2017-06-21T09:16:16.319Z,90
2017-06-21T09:17:17.382Z,90
2017-06-21T09:18:18.168Z,90
2017-06-21T09:19:18.940Z,90
2017-06-21T09:20:19.705Z,90
2017-06-21T09:21:20.588Z,90
2017-06-21T09:22:21.391Z,90
2017-06-21T09:23:22.187Z,90
2017-06-21T09:25:38.998Z,90
2017-06-21T09:26:39.788Z,90
2017-06-21T09:27:40.577Z,90
2017-06-21T09:28:41.347Z,90
2017-06-21T09:29:42.269Z,85
2017-06-21T09:30:43.276Z,85
2017-06-21T09:31:44.383Z,85
2017-06-21T09:32:45.086Z,85
2017-06-21T09:33:45.850Z,85
2017-06-21T09:34:46.617Z,85
2017-06-21T09:35:47.750Z,85
2017-06-21T09:36:48.562Z,85
2017-06-21T09:37:49.357Z,85
2017-06-21T09:38:50.140Z,85
2017-06-21T09:39:50.943Z,85
2017-06-21T09:40:51.890Z,85
2017-06-21T09:41:53.037Z,90
2017-06-21T09:42:53.939Z,90
2017-06-21T09:43:54.725Z,90
2017-06-21T09:44:55.500Z,90
2017-06-21T09:45:56.343Z,90
2017-06-21T09:46:57.190Z,90
2017-06-21T09:47:58.337Z,90
2017-06-21T09:48:59.198Z,90
2017-06-21T09:49:59.974Z,90
2017-06-21T09:51:00.844Z,85
2017-06-21T09:52:01.627Z,85
2017-06-21T09:53:02.461Z,85
2017-06-21T09:54:03.559Z,85
2017-06-21T09:55:04.347Z,85
2017-06-21T09:56:05.209Z,85
2017-06-21T09:57:06.169Z,85
2017-06-21T09:58:07.205Z,85
2017-06-21T09:59:08.065Z,85
2017-06-21T10:00:09.212Z,85
2017-06-21T10:01:09.935Z,85
2017-06-21T10:02:10.713Z,90
2017-06-21T10:03:11.554Z,90
2017-06-21T10:04:12.343Z,90
2017-06-21T10:05:13.484Z,90
2017-06-21T10:06:14.247Z,90
2017-06-21T10:07:15.020Z,90
2017-06-21T10:08:16.028Z,90
2017-06-21T10:09:16.828Z,95
2017-06-21T10:10:17.530Z,95
2017-06-21T10:11:18.528Z,95
2017-06-21T10:12:19.514Z,95
2017-06-21T10:13:20.217Z,95
2017-06-21T10:14:21.036Z,95
2017-06-21T10:15:21.741Z,95
2017-06-21T10:16:22.800Z,95
2017-06-21T10:17:23.654Z,100
2017-06-21T10:18:24.356Z,100
2017-06-21T10:19:25.054Z,100
2017-06-21T10:20:25.828Z,100
2017-06-21T10:21:26.914Z,100
2017-06-21T10:22:27.920Z,100
2017-06-21T10:23:28.690Z,95
2017-06-21T10:24:29.393Z,95
2017-06-21T10:25:30.124Z,95
2017-06-21T10:26:30.902Z,95
2017-06-21T10:27:32.181Z,95
2017-06-21T10:28:32.959Z,95
2017-06-21T10:29:33.739Z,95
2017-06-21T10:30:34.814Z,95
2017-06-21T10:31:35.585Z,95
2017-06-21T10:32:36.906Z,95
2017-06-21T10:33:37.702Z,95
2017-06-21T10:34:38.483Z,95
2017-06-21T10:35:39.261Z,95
2017-06-21T10:36:40.039Z,95
2017-06-21T10:37:40.845Z,95
2017-06-21T10:38:42.062Z,95
2017-06-21T10:39:42.958Z,95
2017-06-21T10:40:43.792Z,95
2017-06-21T10:41:44.587Z,95
2017-06-21T10:42:45.578Z,95
2017-06-21T10:43:46.746Z,95
2017-06-21T10:44:47.451Z,95
2017-06-21T10:45:48.213Z,95
2017-06-21T10:46:48.997Z,100
2017-06-21T10:47:50.234Z,100
2017-06-21T10:48:51.027Z,100
2017-06-21T10:49:52.212Z,100
2017-06-21T10:50:53.001Z,100
2017-06-21T10:51:53.783Z,100
2017-06-21T10:52:54.813Z,105
2017-06-21T10:53:55.613Z,105
2017-06-21T10:54:56.858Z,105
2017-06-21T10:55:57.648Z,105
2017-06-21T10:56:58.429Z,110
2017-06-21T10:57:59.509Z,110
2017-06-21T10:59:00.299Z,110
2017-06-21T11:00:01.066Z,110
2017-06-21T11:01:01.929Z,110
2017-06-21T11:02:03.022Z,110
2017-06-21T11:03:04.022Z,110
2017-06-21T11:04:04.949Z,110
2017-06-21T11:05:05.781Z,110
2017-06-21T11:06:06.739Z,110
2017-06-21T11:07:07.918Z,115
2017-06-21T11:08:08.809Z,115
2017-06-21T11:09:09.605Z,115
2017-06-21T11:10:10.478Z,115
2017-06-21T11:11:11.346Z,115
2017-06-21T11:12:12.224Z,115
2017-06-21T11:13:13.154Z,120
2017-06-21T11:14:14.297Z,120
2017-06-21T11:15:15.135Z,120
2017-06-21T11:16:15.929Z,120
2017-06-21T11:17:16.788Z,125
2017-06-21T11:18:17.686Z,125
2017-06-21T11:19:18.909Z,125
2017-06-21T11:20:19.962Z,125
2017-06-21T11:21:20.740Z,125
2017-06-21T11:22:21.531Z,125
2017-06-21T11:23:22.576Z,125
2017-06-21T11:24:23.447Z,130
2017-06-21T11:25:24.665Z,130
2017-06-21T11:26:25.498Z,130
2017-06-21T11:27:26.307Z,130
2017-06-21T11:28:27.313Z,130
2017-06-21T11:29:28.090Z,130
2017-06-21T11:30:28.901Z,130
2017-06-21T11:31:30.112Z,130
2017-06-21T11:32:30.899Z,130
2017-06-21T11:33:32.549Z,130
2017-06-21T11:34:33.385Z,130
2017-06-21T11:35:34.239Z,130
2017-06-21T11:36:35.027Z,130
2017-06-21T11:37:36.170Z,130
2017-06-21T11:38:37.089Z,130
2017-06-21T11:39:37.961Z,130
2017-06-21T11:40:38.757Z,130
2017-06-21T11:41:39.565Z,135
2017-06-21T11:42:40.419Z,135
2017-06-21T11:43:41.654Z,135
2017-06-21T11:44:42.501Z,140
2017-06-21T11:45:43.287Z,140
2017-06-21T11:46:44.082Z,145
2017-06-21T11:47:44.871Z,145
2017-06-21T11:48:45.841Z,150
2017-06-21T11:49:46.621Z,150
2017-06-21T11:50:47.769Z,150
2017-06-21T11:51:48.553Z,150
2017-06-21T11:52:49.427Z,150
2017-06-21T11:53:50.398Z,150
2017-06-21T11:54:51.206Z,155
2017-06-21T11:55:52.347Z,160
2017-06-21T11:56:53.122Z,160
2017-06-21T11:57:54.012Z,165
2017-06-21T11:58:55.433Z,165
2017-06-21T11:59:56.234Z,170
2017-06-21T12:00:57.016Z,170
2017-06-21T12:01:58.107Z,170
2017-06-21T12:02:58.910Z,170
2017-06-21T12:03:59.753Z,170
2017-06-21T12:05:00.554Z,170
2017-06-21T12:06:01.346Z,170
2017-06-21T12:07:02.132Z,170
2017-06-21T12:08:03.273Z,170
2017-06-21T12:09:04.212Z,170
2017-06-21T12:10:05.103Z,170
2017-06-21T12:11:05.899Z,175
2017-06-21T12:12:06.684Z,175
2017-06-21T12:13:07.481Z,175
2017-06-21T12:14:09.389Z,180
2017-06-21T12:15:10.183Z,180
2017-06-21T12:16:10.960Z,180
2017-06-21T12:17:12.034Z,185
2017-06-21T12:18:12.832Z,185
2017-06-21T12:19:13.758Z,185
2017-06-21T12:20:15.088Z,185
2017-06-21T12:21:15.884Z,185
2017-06-21T12:22:16.763Z,180
2017-06-21T12:23:17.791Z,180
2017-06-21T12:24:18.669Z,185
2017-06-21T12:25:19.457Z,185
2017-06-21T12:26:20.370Z,185
2017-06-21T12:27:21.618Z,190
2017-06-21T12:28:22.598Z,190
2017-06-21T12:29:23.906Z,190
2017-06-21T12:30:24.691Z,195
2017-06-21T12:31:25.479Z,200
2017-06-21T12:32:26.277Z,205
2017-06-21T12:33:27.513Z,205
2017-06-21T12:34:28.397Z,205
2017-06-21T12:35:29.184Z,205
2017-06-21T12:36:29.981Z,210
2017-06-21T12:37:30.767Z,210
2017-06-21T12:38:31.677Z,215
2017-06-21T12:39:32.767Z,215
2017-06-21T12:40:33.689Z,210
2017-06-21T12:41:34.489Z,215
2017-06-21T12:42:35.268Z,215
2017-06-21T12:43:36.058Z,215
2017-06-21T12:44:37.375Z,215
2017-06-21T12:45:38.520Z,215
2017-06-21T12:46:39.409Z,210
2017-06-21T12:47:40.187Z,215
2017-06-21T12:48:41.055Z,215
2017-06-21T12:49:41.839Z,215
2017-06-21T12:50:42.677Z,215
2017-06-21T12:51:44.143Z,215
2017-06-21T12:52:45.017Z,220
2017-06-21T12:53:45.878Z,220
2017-06-21T12:54:46.702Z,225
2017-06-21T12:55:47.487Z,225
2017-06-21T12:56:48.730Z,225
2017-06-21T12:57:49.568Z,225
2017-06-21T12:58:50.449Z,225
2017-06-21T12:59:51.338Z,230
2017-06-21T13:00:52.131Z,235
2017-06-21T13:01:53.059Z,240
2017-06-21T13:02:53.923Z,245
2017-06-21T13:03:55.065Z,245
2017-06-21T13:04:55.947Z,245
2017-06-21T13:05:57.053Z,245
2017-06-21T13:06:58.126Z,245
2017-06-21T13:07:58.965Z,245
2017-06-21T13:08:59.833Z,250
2017-06-21T13:10:01.062Z,250
2017-06-21T13:11:02.015Z,250
2017-06-21T13:12:02.797Z,255
2017-06-21T13:13:03.668Z,260
2017-06-21T13:14:04.461Z,260
2017-06-21T13:15:05.269Z,265
2017-06-21T13:16:06.407Z,275
2017-06-21T13:17:07.435Z,275
2017-06-21T13:18:08.299Z,330
2017-06-21T13:19:09.107Z,505
2017-06-21T13:20:09.917Z,595
2017-06-21T13:21:10.791Z,630
2017-06-21T13:22:12.257Z,590
2017-06-21T13:23:13.068Z,595
2017-06-21T13:25:29.429Z,675
2017-06-21T13:26:30.219Z,700
2017-06-21T13:27:31.414Z,715
2017-06-21T13:28:32.219Z,740
2017-06-21T13:29:33.067Z,725
2017-06-21T13:30:33.861Z,705
2017-06-21T13:31:34.673Z,740
2017-06-21T13:32:35.844Z,760
2017-06-21T13:33:36.744Z,755
2017-06-21T13:34:37.961Z,755
2017-06-21T13:35:38.773Z,760
2017-06-21T13:36:39.572Z,760
2017-06-21T13:37:40.369Z,780
2017-06-21T13:38:41.508Z,775
2017-06-21T13:39:42.368Z,780
2017-06-21T13:40:43.243Z,775
2017-06-21T13:41:44.043Z,780
2017-06-21T13:42:44.842Z,800
2017-06-21T13:43:45.998Z,825
2017-06-21T13:44:47.149Z,795
2017-06-21T13:45:47.966Z,780
2017-06-21T13:46:48.765Z,750
2017-06-21T13:47:50.074Z,790
2017-06-21T13:48:50.869Z,770
2017-06-21T13:49:52.017Z,735
2017-06-21T13:50:52.801Z,755
2017-06-21T13:51:53.713Z,755
2017-06-21T13:52:54.523Z,780
2017-06-21T13:53:55.333Z,795
2017-06-21T13:54:56.293Z,805
2017-06-21T13:55:57.435Z,830
2017-06-21T13:56:58.254Z,750
2017-06-21T13:57:59.051Z,810
2017-06-21T13:58:59.848Z,820
2017-06-21T14:00:00.747Z,785
2017-06-21T14:01:01.649Z,690
2017-06-21T14:02:02.447Z,585
2017-06-21T14:03:04.069Z,630
2017-06-21T14:04:04.874Z,660
2017-06-21T14:05:05.775Z,635
2017-06-21T14:06:06.911Z,675
2017-06-21T14:07:07.831Z,660
2017-06-21T14:08:08.977Z,740
2017-06-21T14:09:09.779Z,840
2017-06-21T14:10:10.774Z,890
2017-06-21T14:11:11.565Z,950
2017-06-21T14:12:12.393Z,980
2017-06-21T14:13:13.195Z,1000
2017-06-21T14:14:13.989Z,1015
2017-06-21T14:15:15.222Z,1065
2017-06-21T14:16:16.023Z,1020
2017-06-21T14:17:16.899Z,960
2017-06-21T14:18:17.684Z,945
2017-06-21T14:19:18.483Z,980
2017-06-21T14:20:19.601Z,1015
2017-06-21T14:21:20.755Z,1000
2017-06-21T14:22:21.553Z,975
2017-06-21T14:23:22.438Z,1015
2017-06-21T14:24:23.231Z,1030
2017-06-21T14:25:24.271Z,985
2017-06-21T14:26:25.122Z,995
2017-06-21T14:27:26.285Z,1020
2017-06-21T14:28:27.090Z,1005
2017-06-21T14:29:27.904Z,1035
2017-06-21T14:30:28.914Z,1065